Mesa, Idaho
Current Conditions -  °F | °C
As of 6:31 AM on Thursday 25 Dec 2014 (Local Time) from KMYL Reporting Station
Light Snow Light Snow  
Wind Chill: 13°   Ceiling: 1400
Heat Index: 24°   Visibility: 1mi
Dew Point: 21°   Wind: 12mph
Humidity: 88%   Direction: 300°WNW
Pressure: 29.75"   Gusts: NA
Location:  44.63°N, 116.45°W
Report Text: KMYL 251331Z AUTO 30010KT 1SM -SN BR VV014 M04/M06 A2975 RMK AO2 P0001 T10441061
Loading
Personal Weather Stations






























Interactive Weather Map New forecast layout! Learn more

10-Day Weather Forecast

Advertisements
Track Severe Weather on mobile